Time;durP1;ratioP1;P1;durP2;ratioP2;P2;SDS_P1;SDS_P2;PMS_P1;PMS_P2;Temp;Humidity;BMP_temperature;BMP_pressure;BME280_temperature;BME280_humidity;BME280_pressure;Samples;Min_cycle;Max_cycle;Signal;HPM_P1;HPM_P2
2022/08/08 00:01:31;;;;;;;5.20;3.40;;;;;;;15.29;62.87;101630.06;107126;1283;73439;-83
2022/08/08 00:04:29;;;;;;;5.60;3.50;;;;;;;15.24;63.17;101627.84;107086;1282;63859;-83
2022/08/08 00:07:17;;;;;;;5.20;3.90;;;;;;;15.19;63.29;101629.83;107078;1282;61740;-83
2022/08/08 00:10:05;;;;;;;6.20;3.80;;;;;;;15.14;63.42;101629.82;107101;1282;75958;-82
2022/08/08 00:12:47;;;;;;;5.30;3.60;;;;;;;15.06;63.72;101629.05;106974;1282;71455;-83
2022/08/08 00:15:27;;;;;;;6.50;3.30;;;;;;;15.01;64.17;101633.45;107112;1282;74280;-83
2022/08/08 00:18:26;;;;;;;4.70;3.30;;;;;;;14.90;64.74;101639.34;107109;1282;64944;-83
2022/08/08 00:20:56;;;;;;;5.40;3.50;;;;;;;14.80;64.74;101638.94;106677;1282;60644;-84
2022/08/08 00:23:34;;;;;;;5.30;3.50;;;;;;;14.72;64.99;101637.36;106809;1284;74325;-83
2022/08/08 00:26:37;;;;;;;6.90;3.80;;;;;;;14.66;65.16;101634.52;107090;1282;72238;-83
2022/08/08 00:29:10;;;;;;;6.30;3.70;;;;;;;14.61;65.61;101634.30;107121;1282;74000;-83
2022/08/08 00:31:46;;;;;;;4.60;3.50;;;;;;;14.58;65.78;101637.05;107070;1282;62167;-83
2022/08/08 00:37:51;;;;;;;6.80;3.90;;;;;;;14.49;66.16;101633.52;107182;1282;76572;-83
2022/08/08 00:40:28;;;;;;;5.40;3.50;;;;;;;14.46;66.40;101638.76;107205;1280;71949;-82
2022/08/08 00:43:40;;;;;;;5.40;3.50;;;;;;;14.42;66.76;101635.23;106848;1282;74074;-82
2022/08/08 00:46:36;;;;;;;4.80;3.40;;;;;;;14.38;67.17;101633.94;107004;1281;61949;-83
2022/08/08 00:49:47;;;;;;;4.40;3.30;;;;;;;14.35;67.40;101632.38;107213;1282;61913;-83
2022/08/08 00:52:50;;;;;;;4.80;3.80;;;;;;;14.31;67.62;101629.05;107238;1282;76868;-83
2022/08/08 00:55:39;;;;;;;5.90;3.40;;;;;;;14.29;67.89;101631.59;107162;1282;72591;-83
2022/08/08 00:58:58;;;;;;;6.00;3.70;;;;;;;14.24;68.11;101629.08;107193;1282;72749;-83
2022/08/08 01:01:38;;;;;;;5.10;3.80;;;;;;;14.21;67.95;101628.27;107199;1282;62267;-83
2022/08/08 01:04:20;;;;;;;5.60;3.50;;;;;;;14.18;68.51;101625.18;106803;1282;60367;-83
2022/08/08 01:07:13;;;;;;;5.00;3.90;;;;;;;14.14;68.68;101627.27;106905;1281;74300;-84
2022/08/08 01:09:53;;;;;;;5.30;3.70;;;;;;;14.10;68.91;101627.70;107153;1282;72446;-83
2022/08/08 01:12:53;;;;;;;5.50;3.70;;;;;;;14.07;68.94;101629.48;107048;1281;72296;-83
2022/08/08 01:15:42;;;;;;;5.80;4.20;;;;;;;14.03;69.17;101629.08;107043;1280;62545;-84
2022/08/08 01:18:53;;;;;;;6.70;4.30;;;;;;;13.96;69.72;101632.02;107034;1280;60639;-83
2022/08/08 01:21:43;;;;;;;5.80;4.10;;;;;;;13.86;70.17;101632.35;107032;1282;75926;-83
2022/08/08 01:24:57;;;;;;;5.00;4.00;;;;;;;13.78;70.14;101629.06;107152;1282;74396;-83
2022/08/08 01:27:42;;;;;;;6.60;4.40;;;;;;;13.75;70.21;101637.92;107220;1282;73640;-83
2022/08/08 01:30:27;;;;;;;5.70;4.20;;;;;;;13.69;70.09;101630.98;107214;1282;63001;-83
2022/08/08 01:33:27;;;;;;;6.40;4.20;;;;;;;13.63;70.45;101632.55;106899;1282;62551;-83
2022/08/08 01:36:39;;;;;;;6.20;4.10;;;;;;;13.57;70.80;101636.70;106851;1282;77356;-83
2022/08/08 01:39:39;;;;;;;5.90;4.40;;;;;;;13.52;70.70;101640.18;107346;1282;72030;-83
2022/08/08 01:42:18;;;;;;;6.20;4.40;;;;;;;13.48;71.19;101637.39;106985;1284;73188;-82
2022/08/08 01:45:24;;;;;;;6.10;4.50;;;;;;;13.45;71.31;101638.59;107471;1281;63300;-82
2022/08/08 01:48:19;;;;;;;8.00;4.50;;;;;;;13.42;71.67;101643.55;107208;1282;61671;-83
2022/08/08 01:51:08;;;;;;;5.60;4.20;;;;;;;13.39;71.82;101644.70;107167;1282;75283;-83
2022/08/08 01:54:21;;;;;;;6.20;4.40;;;;;;;13.35;72.05;101641.48;107065;1281;73234;-83
2022/08/08 01:57:21;;;;;;;6.70;4.80;;;;;;;13.29;72.02;101644.38;106929;1282;73841;-83
2022/08/08 02:00:21;;;;;;;7.80;4.80;;;;;;;13.26;72.32;101641.55;106952;1282;63317;-84
2022/08/08 02:03:24;;;;;;;6.70;4.50;;;;;;;13.24;72.62;101638.61;106888;1282;60191;-83
2022/08/08 02:06:51;;;;;;;7.50;4.70;;;;;;;13.21;72.59;101636.27;107179;1284;76259;-83
2022/08/08 02:09:36;;;;;;;5.90;4.90;;;;;;;13.17;73.08;101634.20;107086;1282;71576;-83
2022/08/08 02:12:29;;;;;;;6.80;4.70;;;;;;;13.14;73.11;101631.34;107204;1282;74955;-83
2022/08/08 02:15:08;;;;;;;7.10;4.70;;;;;;;13.13;73.26;101634.80;107045;1282;63435;-83
2022/08/08 02:18:02;;;;;;;7.50;5.10;;;;;;;13.12;73.70;101633.93;107000;1284;61210;-83
2022/08/08 02:23:52;;;;;;;5.90;4.90;;;;;;;13.05;73.92;101643.33;107261;1282;69858;-83
2022/08/08 02:26:51;;;;;;;7.00;4.70;;;;;;;13.01;73.97;101641.36;107147;1282;72834;-83
2022/08/08 02:29:47;;;;;;;5.70;4.40;;;;;;;12.99;74.09;101643.30;107271;1282;62441;-83
2022/08/08 02:32:32;;;;;;;6.30;4.60;;;;;;;12.96;74.42;101644.17;107058;1281;61386;-83
2022/08/08 02:35:41;;;;;;;6.40;5.10;;;;;;;12.93;74.56;101651.34;106915;1282;75017;-83
2022/08/08 02:38:55;;;;;;;6.50;4.90;;;;;;;12.90;74.77;101649.20;107081;1282;74175;-83
2022/08/08 02:41:37;;;;;;;7.40;5.50;;;;;;;12.88;74.83;101652.86;107040;1281;73910;-83
2022/08/08 02:44:50;;;;;;;7.10;5.00;;;;;;;12.85;74.94;101654.31;107179;1282;63679;-83
2022/08/08 02:47:46;;;;;;;7.20;5.30;;;;;;;12.83;74.93;101655.98;107221;1282;60979;-82
2022/08/08 02:50:45;;;;;;;7.40;5.50;;;;;;;12.81;74.87;101652.98;107096;1282;76227;-83
2022/08/08 02:53:52;;;;;;;6.40;4.90;;;;;;;12.80;74.84;101650.63;107299;1282;71163;-82
2022/08/08 02:57:00;;;;;;;7.00;5.40;;;;;;;12.79;74.84;101654.86;107128;1281;72911;-82
2022/08/08 02:59:52;;;;;;;7.30;5.00;;;;;;;12.77;74.93;101656.14;106750;1282;63559;-84
2022/08/08 03:03:08;;;;;;;7.30;5.40;;;;;;;12.74;74.90;101653.78;107181;1282;63330;-83
2022/08/08 03:06:00;;;;;;;7.40;5.30;;;;;;;12.73;74.99;101653.88;107096;1281;76240;-83
2022/08/08 03:08:51;;;;;;;7.70;5.50;;;;;;;12.72;75.16;101656.31;106958;1282;72458;-83
2022/08/08 03:11:49;;;;;;;7.70;5.20;;;;;;;12.70;74.95;101658.10;107376;1282;73035;-83
2022/08/08 03:14:58;;;;;;;8.00;5.50;;;;;;;12.69;75.38;101657.00;106916;1281;63421;-82
2022/08/08 03:18:08;;;;;;;7.20;5.60;;;;;;;12.64;75.28;101654.85;106890;1282;60720;-82
2022/08/08 03:20:49;;;;;;;8.50;5.20;;;;;;;12.63;75.65;101654.91;107093;1282;74481;-83
2022/08/08 03:23:20;;;;;;;6.60;5.10;;;;;;;12.60;75.57;101652.95;107302;1282;72360;-82
2022/08/08 03:25:48;;;;;;;6.70;5.40;;;;;;;12.58;75.83;101653.52;106992;1282;74031;-82
2022/08/08 03:28:44;;;;;;;6.80;5.80;;;;;;;12.55;76.02;101653.50;107414;1282;62748;-82
2022/08/08 03:34:27;;;;;;;8.30;5.40;;;;;;;12.46;76.74;101655.48;107288;1283;75626;-84
2022/08/08 03:36:54;;;;;;;7.50;5.60;;;;;;;12.44;76.63;101655.67;107244;1282;71510;-81
2022/08/08 03:39:21;;;;;;;6.80;5.40;;;;;;;12.42;76.87;101655.95;107290;1282;71930;-84
2022/08/08 03:41:49;;;;;;;8.10;5.80;;;;;;;12.40;76.92;101652.98;107204;1282;61133;-82
2022/08/08 03:44:36;;;;;;;8.00;5.70;;;;;;;12.39;76.95;101655.40;106977;1282;62010;-82
2022/08/08 03:47:05;;;;;;;7.40;5.40;;;;;;;12.38;77.06;101656.93;107175;1282;76239;-83
2022/08/08 03:49:47;;;;;;;7.30;5.20;;;;;;;12.37;76.90;101661.79;107025;1282;72199;-81
2022/08/08 03:52:30;;;;;;;7.70;5.30;;;;;;;12.36;76.95;101664.08;107239;1282;72985;-82
2022/08/08 03:54:58;;;;;;;8.00;5.60;;;;;;;12.34;76.65;101662.48;106867;1282;61191;-83
2022/08/08 03:57:48;;;;;;;7.10;5.60;;;;;;;12.33;77.01;101665.31;107215;1282;63762;-82
2022/08/08 04:00:35;;;;;;;8.00;5.70;;;;;;;12.33;77.30;101666.84;107304;1282;77046;-82
2022/08/08 04:03:23;;;;;;;8.60;5.90;;;;;;;12.34;77.28;101667.13;107136;1282;73764;-82
2022/08/08 04:06:10;;;;;;;7.80;6.10;;;;;;;12.35;77.57;101670.34;107226;1282;74935;-82
2022/08/08 04:08:37;;;;;;;7.30;5.90;;;;;;;12.36;77.47;101673.65;107174;1282;62475;-82
2022/08/08 04:11:07;;;;;;;7.80;5.80;;;;;;;12.35;77.79;101674.42;107445;1282;60351;-82
2022/08/08 04:13:37;;;;;;;8.60;5.50;;;;;;;12.35;77.89;101676.79;107023;1282;75786;-82
2022/08/08 04:16:25;;;;;;;6.50;5.20;;;;;;;12.35;78.09;101683.34;107361;1282;73361;-81
2022/08/08 04:19:07;;;;;;;7.00;5.60;;;;;;;12.35;78.18;101684.07;107159;1282;72747;-82
2022/08/08 04:21:52;;;;;;;7.10;5.50;;;;;;;12.34;78.13;101690.75;107137;1282;62014;-81
2022/08/08 04:24:20;;;;;;;7.50;5.80;;;;;;;12.32;78.40;101695.66;106903;1282;60701;-82
2022/08/08 04:26:57;;;;;;;8.40;6.20;;;;;;;12.30;78.39;101696.25;106924;1282;73856;-82
2022/08/08 04:29:25;;;;;;;8.00;6.00;;;;;;;12.28;78.65;101694.33;106900;1282;71566;-82
2022/08/08 04:31:53;;;;;;;7.90;5.60;;;;;;;12.28;78.93;101692.58;107234;1282;72745;-81
2022/08/08 04:34:26;;;;;;;9.20;6.00;;;;;;;12.28;79.21;101695.09;107001;1283;61487;-82
2022/08/08 04:36:58;;;;;;;8.30;5.90;;;;;;;12.31;79.38;101697.36;107345;1282;61582;-81
2022/08/08 04:39:30;;;;;;;9.20;6.10;;;;;;;12.35;79.31;101695.51;107324;1282;76584;-82
2022/08/08 04:42:17;;;;;;;8.90;6.10;;;;;;;12.38;79.46;101701.08;106989;1282;74908;-82
2022/08/08 04:44:45;;;;;;;6.70;5.90;;;;;;;12.41;79.81;101704.17;107210;1281;72897;-82
2022/08/08 04:47:14;;;;;;;7.60;6.20;;;;;;;12.44;79.89;101707.34;107121;1281;62050;-82
2022/08/08 04:49:42;;;;;;;7.20;5.70;;;;;;;12.49;79.88;101703.79;107055;1282;61568;-82
2022/08/08 04:52:30;;;;;;;7.70;6.40;;;;;;;12.58;79.84;101699.98;107142;1282;76136;-82
2022/08/08 04:55:01;;;;;;;9.10;6.00;;;;;;;12.68;79.63;101699.21;107211;1282;71498;-82
2022/08/08 04:57:31;;;;;;;9.60;5.90;;;;;;;12.75;79.33;101703.05;107203;1282;72956;-82
2022/08/08 05:00:01;;;;;;;8.00;5.90;;;;;;;12.84;79.44;101699.70;106909;1282;62267;-82
2022/08/08 05:02:28;;;;;;;8.90;5.90;;;;;;;12.95;79.25;101703.70;107064;1282;60340;-82
2022/08/08 05:04:57;;;;;;;7.50;6.00;;;;;;;13.07;79.12;101703.16;107119;1282;75110;-82
2022/08/08 05:07:26;;;;;;;10.50;6.10;;;;;;;13.19;78.61;101702.01;107352;1282;72679;-82
2022/08/08 05:10:08;;;;;;;10.40;6.20;;;;;;;13.31;78.66;101697.65;107236;1282;73016;-82
2022/08/08 05:12:40;;;;;;;10.80;6.10;;;;;;;13.41;78.35;101705.08;107149;1282;62410;-82
2022/08/08 05:15:27;;;;;;;11.40;6.40;;;;;;;13.55;78.39;101707.22;107118;1282;60357;-82
2022/08/08 05:18:14;;;;;;;10.00;6.40;;;;;;;13.64;77.66;101704.69;107139;1282;77396;-82
2022/08/08 05:20:43;;;;;;;12.60;6.10;;;;;;;13.73;76.95;101709.60;107320;1282;71405;-82
2022/08/08 05:23:18;;;;;;;12.80;6.00;;;;;;;13.82;76.44;101710.59;107124;1282;74307;-82
2022/08/08 05:25:48;;;;;;;14.70;6.00;;;;;;;13.93;76.42;101709.04;107330;1282;62273;-82
2022/08/08 05:28:15;;;;;;;13.70;5.90;;;;;;;14.04;76.10;101710.20;107162;1280;61005;-82
2022/08/08 05:31:03;;;;;;;12.70;6.20;;;;;;;14.17;75.80;101713.79;107162;1282;76991;-83
2022/08/08 05:33:52;;;;;;;13.20;5.60;;;;;;;14.26;74.93;101712.01;107145;1282;73423;-83
2022/08/08 05:36:24;;;;;;;9.50;5.40;;;;;;;14.34;74.59;101707.61;106864;1282;71992;-82
2022/08/08 05:38:56;;;;;;;8.30;5.50;;;;;;;14.45;74.37;101705.07;106978;1284;62356;-82
2022/08/08 05:41:25;;;;;;;10.90;5.50;;;;;;;14.58;73.85;101706.38;107014;1282;60594;-83
2022/08/08 05:44:02;;;;;;;9.50;5.80;;;;;;;14.72;73.58;101708.23;107194;1282;74098;-82
2022/08/08 05:46:32;;;;;;;9.40;5.60;;;;;;;14.87;73.04;101713.75;107059;1282;71152;-82
2022/08/08 05:48:59;;;;;;;8.00;5.80;;;;;;;14.99;72.49;101705.97;107103;1281;73525;-82
2022/08/08 05:51:27;;;;;;;11.30;5.10;;;;;;;15.11;71.86;101709.39;107037;1281;62351;-82
2022/08/08 05:54:15;;;;;;;6.60;5.10;;;;;;;15.22;71.32;101708.41;107062;1282;61884;-82
2022/08/08 05:57:02;;;;;;;7.70;4.90;;;;;;;15.34;70.75;101709.17;107063;1282;77089;-83
2022/08/08 05:59:35;;;;;;;7.00;5.10;;;;;;;15.47;70.53;101713.86;107151;1282;72051;-83
2022/08/08 06:05:16;;;;;;;10.10;5.60;;;;;;;15.72;69.45;101715.77;107187;1282;64126;-83
2022/08/08 06:08:02;;;;;;;6.90;5.00;;;;;;;15.88;69.17;101717.03;106938;1280;61308;-83
2022/08/08 06:10:38;;;;;;;7.80;5.00;;;;;;;16.05;68.94;101720.35;107221;1282;75136;-83
2022/08/08 06:13:07;;;;;;;7.00;4.60;;;;;;;16.21;68.23;101720.64;107494;1282;72446;-83
2022/08/08 06:15:36;;;;;;;8.10;5.10;;;;;;;16.35;67.77;101724.06;107187;1282;73287;-83
2022/08/08 06:18:20;;;;;;;8.20;5.10;;;;;;;16.46;67.26;101722.34;107090;1282;63376;-83
2022/08/08 06:20:52;;;;;;;5.50;4.60;;;;;;;16.54;66.92;101724.23;106929;1282;60537;-83
2022/08/08 06:23:24;;;;;;;8.20;5.00;;;;;;;16.59;66.52;101725.73;107056;1282;75130;-82
2022/08/08 06:26:12;;;;;;;6.10;4.70;;;;;;;16.66;66.54;101726.59;107088;1282;73195;-84
2022/08/08 06:29:05;;;;;;;6.20;4.70;;;;;;;16.80;66.31;101728.02;107209;1282;74349;-83
2022/08/08 06:31:59;;;;;;;8.00;4.70;;;;;;;16.94;65.91;101729.05;107304;1282;63639;-83
2022/08/08 06:34:38;;;;;;;6.10;5.00;;;;;;;17.11;65.26;101724.33;106769;1284;61278;-84
2022/08/08 06:37:11;;;;;;;6.20;4.70;;;;;;;17.24;64.67;101726.78;107030;1282;76165;-83
2022/08/08 06:40:03;;;;;;;6.80;4.60;;;;;;;17.38;64.04;101730.15;107132;1282;72741;-84
2022/08/08 06:42:35;;;;;;;7.30;4.70;;;;;;;17.51;63.78;101735.91;107004;1283;72898;-83
2022/08/08 06:45:03;;;;;;;6.30;4.30;;;;;;;17.60;63.00;101738.83;107067;1282;62293;-83
2022/08/08 06:47:33;;;;;;;7.10;4.70;;;;;;;17.69;62.61;101740.65;107188;1282;61665;-84
2022/08/08 06:50:19;;;;;;;8.40;4.30;;;;;;;17.81;62.00;101740.05;106806;1279;77125;-83
2022/08/08 06:53:02;;;;;;;8.80;4.80;;;;;;;17.95;61.55;101745.14;107148;1282;73377;-83
2022/08/08 06:55:40;;;;;;;8.40;4.30;;;;;;;18.09;60.79;101745.59;107189;1282;72673;-84
2022/08/08 06:58:09;;;;;;;9.10;4.90;;;;;;;18.22;60.10;101748.66;107344;1284;61918;-84
2022/08/08 07:00:41;;;;;;;7.30;4.20;;;;;;;18.31;59.89;101748.91;107427;1282;60385;-83
2022/08/08 07:03:15;;;;;;;7.90;4.80;;;;;;;18.48;60.03;101754.35;107054;1282;75015;-84
2022/08/08 07:06:07;;;;;;;6.70;4.10;;;;;;;18.67;59.64;101753.45;107269;1282;74307;-84
2022/08/08 07:08:37;;;;;;;7.60;4.60;;;;;;;18.80;58.84;101752.89;107289;1282;72963;-84
2022/08/08 07:11:08;;;;;;;10.10;5.00;;;;;;;18.94;58.63;101755.15;107366;1283;60632;-84
2022/08/08 07:13:55;;;;;;;8.00;4.30;;;;;;;19.08;57.82;101760.02;107424;1282;61706;-83
2022/08/08 07:16:33;;;;;;;8.00;4.40;;;;;;;19.19;57.57;101760.77;107038;1282;76409;-83
2022/08/08 07:19:29;;;;;;;12.40;4.70;;;;;;;19.32;57.29;101754.68;107113;1282;72195;-83
2022/08/08 07:22:03;;;;;;;10.50;4.90;;;;;;;19.41;56.63;101758.86;107047;1284;73704;-83
2022/08/08 07:24:52;;;;;;;12.60;5.00;;;;;;;19.52;56.78;101755.79;106916;1283;61293;-83
2022/08/08 07:27:23;;;;;;;12.10;5.20;;;;;;;19.64;55.58;101759.05;106904;1281;60835;-83
2022/08/08 07:30:01;;;;;;;8.80;5.10;;;;;;;19.76;55.94;101760.48;106860;1282;75914;-83
2022/08/08 07:32:40;;;;;;;9.10;4.80;;;;;;;19.89;54.80;101760.45;107101;1284;72398;-83
2022/08/08 07:35:08;;;;;;;9.90;5.10;;;;;;;19.96;54.00;101764.15;106957;1284;74295;-83
2022/08/08 07:37:35;;;;;;;7.40;4.20;;;;;;;20.08;54.12;101763.79;106907;1284;62318;-84
2022/08/08 07:40:24;;;;;;;6.40;3.70;;;;;;;20.23;52.32;101759.67;106915;1282;62770;-83
2022/08/08 07:43:01;;;;;;;5.80;3.80;;;;;;;20.36;51.07;101761.08;106916;1283;75441;-84
2022/08/08 07:45:30;;;;;;;7.10;3.90;;;;;;;20.51;51.09;101763.36;106965;1284;71636;-84
2022/08/08 07:48:17;;;;;;;5.50;4.10;;;;;;;20.71;50.47;101770.51;107101;1284;75330;-83
2022/08/08 07:50:47;;;;;;;5.10;4.00;;;;;;;20.81;49.09;101773.95;106782;1282;61863;-83
2022/08/08 07:53:28;;;;;;;7.90;4.10;;;;;;;20.85;48.42;101775.75;107023;1282;59383;-84
2022/08/08 07:56:19;;;;;;;8.30;4.80;;;;;;;20.83;49.44;101777.34;107021;1283;76259;-83
2022/08/08 07:59:09;;;;;;;8.90;4.40;;;;;;;20.89;50.65;101777.66;106823;1282;72359;-83
2022/08/08 08:01:37;;;;;;;7.50;4.40;;;;;;;20.99;50.21;101779.64;106975;1283;74045;-83
2022/08/08 08:04:31;;;;;;;9.10;4.70;;;;;;;21.07;50.53;101779.58;106750;1283;61786;-84
2022/08/08 08:07:02;;;;;;;6.60;3.80;;;;;;;21.20;50.78;101776.45;106978;1283;60540;-83
2022/08/08 08:09:38;;;;;;;9.50;4.60;;;;;;;21.33;50.19;101775.09;107283;1283;76264;-84
2022/08/08 08:12:06;;;;;;;13.80;4.50;;;;;;;21.45;49.58;101779.92;106970;1284;71449;-84
2022/08/08 08:14:55;;;;;;;7.30;3.30;;;;;;;21.61;48.62;101780.91;107066;1283;71660;-84
2022/08/08 08:17:24;;;;;;;6.20;3.60;;;;;;;21.76;47.76;101778.95;107151;1283;60777;-84
2022/08/08 08:20:03;;;;;;;7.60;2.90;;;;;;;21.93;47.06;101777.89;107043;1283;61686;-82
2022/08/08 08:22:30;;;;;;;6.10;2.90;;;;;;;22.02;46.35;101778.92;107088;1283;74991;-84
2022/08/08 08:24:59;;;;;;;4.90;2.60;;;;;;;22.07;45.98;101781.02;107114;1282;72117;-84
2022/08/08 08:27:34;;;;;;;4.10;2.50;;;;;;;22.15;45.80;101778.23;107163;1282;72446;-84
2022/08/08 08:30:02;;;;;;;4.10;2.80;;;;;;;22.27;46.41;101780.16;107200;1284;60567;-85
2022/08/08 08:32:30;;;;;;;5.40;3.00;;;;;;;22.43;46.23;101779.70;107011;1283;60713;-85
2022/08/08 08:35:03;;;;;;;3.40;2.60;;;;;;;22.60;45.99;101779.69;107010;1283;76191;-84
2022/08/08 08:37:32;;;;;;;4.50;2.40;;;;;;;22.73;44.83;101780.95;106856;1284;71406;-82
2022/08/08 08:40:20;;;;;;;4.00;2.40;;;;;;;22.77;43.69;101782.02;107083;1282;74742;-84
2022/08/08 08:42:48;;;;;;;3.70;2.10;;;;;;;22.84;44.67;101778.27;107196;1283;60626;-85
2022/08/08 08:45:18;;;;;;;3.70;2.30;;;;;;;22.94;43.04;101776.67;107087;1282;61269;-85
2022/08/08 08:47:53;;;;;;;4.00;2.40;;;;;;;23.08;43.19;101781.73;107085;1284;74808;-85
2022/08/08 08:50:26;;;;;;;3.60;2.20;;;;;;;23.28;42.41;101779.46;107057;1281;72528;-85
2022/08/08 08:53:03;;;;;;;3.10;2.10;;;;;;;23.43;41.54;101778.14;107074;1284;73268;-86
2022/08/08 08:55:50;;;;;;;3.90;2.30;;;;;;;23.56;41.46;101777.23;106973;1283;64179;-84
2022/08/08 08:58:40;;;;;;;3.80;2.10;;;;;;;23.76;41.33;101782.11;106725;1283;60608;-85
2022/08/08 09:01:10;;;;;;;5.80;2.20;;;;;;;23.99;41.41;101780.08;106948;1283;75371;-85
2022/08/08 09:03:49;;;;;;;3.40;2.00;;;;;;;24.12;40.67;101774.71;107131;1282;71451;-85
2022/08/08 09:06:24;;;;;;;2.70;2.10;;;;;;;24.23;40.59;101772.79;107102;1283;73995;-85
2022/08/08 09:09:07;;;;;;;3.90;1.90;;;;;;;24.36;39.90;101771.52;106829;1284;61356;-85
2022/08/08 09:11:54;;;;;;;2.70;2.10;;;;;;;24.39;39.47;101770.32;107260;1283;62080;-83
2022/08/08 09:14:32;;;;;;;4.70;2.50;;;;;;;24.39;39.59;101771.30;106905;1284;76205;-83
2022/08/08 09:17:01;;;;;;;3.40;2.40;;;;;;;24.43;39.01;101768.08;107097;1283;71415;-84
2022/08/08 09:19:39;;;;;;;3.90;2.00;;;;;;;24.36;38.02;101769.46;107133;1282;73731;-84
2022/08/08 09:22:27;;;;;;;3.30;1.90;;;;;;;24.35;38.57;101766.02;107069;1283;63551;-84
2022/08/08 09:24:54;;;;;;;2.70;1.60;;;;;;;24.50;39.20;101767.20;107098;1280;60718;-84
2022/08/08 09:27:22;;;;;;;3.40;1.70;;;;;;;24.69;38.60;101763.60;107098;1282;73655;-83
2022/08/08 09:30:13;;;;;;;4.60;2.00;;;;;;;24.90;38.58;101767.81;107070;1281;73120;-83
2022/08/08 09:32:52;;;;;;;3.80;1.80;;;;;;;25.01;37.69;101767.91;107183;1282;74057;-83
2022/08/08 09:35:45;;;;;;;3.70;2.10;;;;;;;25.14;37.62;101769.36;107065;1282;62605;-84
2022/08/08 09:38:29;;;;;;;3.50;1.80;;;;;;;25.16;36.36;101769.63;106966;1282;61370;-84
2022/08/08 09:41:08;;;;;;;2.80;1.70;;;;;;;25.27;36.05;101770.09;107215;1282;75042;-83
2022/08/08 09:43:49;;;;;;;3.20;1.70;;;;;;;25.28;35.18;101767.21;107281;1280;70879;-84
2022/08/08 09:46:41;;;;;;;2.70;1.50;;;;;;;25.36;35.48;101766.81;106769;1281;74568;-83
2022/08/08 09:49:23;;;;;;;5.00;1.70;;;;;;;25.50;35.80;101768.49;107024;1283;61283;-83
2022/08/08 09:52:09;;;;;;;4.90;1.80;;;;;;;25.72;35.44;101764.79;107284;1282;63074;-85
2022/08/08 09:54:57;;;;;;;2.90;1.60;;;;;;;25.92;35.51;101765.72;107157;1282;76288;-84
2022/08/08 09:57:34;;;;;;;2.80;1.60;;;;;;;25.98;33.23;101758.53;107003;1282;72765;-85
2022/08/08 10:00:13;;;;;;;3.60;1.50;;;;;;;26.07;33.53;101757.34;107060;1281;75149;-84
2022/08/08 10:03:03;;;;;;;3.50;1.60;;;;;;;26.28;34.09;101759.28;107199;1281;61987;-83
2022/08/08 10:05:36;;;;;;;5.40;1.90;;;;;;;26.45;34.27;101758.54;106733;1282;61382;-84
2022/08/08 10:08:05;;;;;;;3.20;1.70;;;;;;;26.58;33.24;101759.61;106850;1282;75078;-84
2022/08/08 10:10:41;;;;;;;3.90;2.00;;;;;;;26.63;33.29;101758.31;107257;1281;71294;-84
2022/08/08 10:13:30;;;;;;;2.20;1.50;;;;;;;26.69;33.10;101754.85;107146;1281;72782;-85
2022/08/08 10:16:01;;;;;;;4.00;1.70;;;;;;;26.71;31.91;101746.91;106957;1282;61406;-85
2022/08/08 10:18:32;;;;;;;3.00;1.70;;;;;;;26.75;32.57;101748.63;107208;1281;60902;-85
2022/08/08 10:21:12;;;;;;;3.80;1.70;;;;;;;26.85;33.17;101749.59;107055;1281;74899;-85
2022/08/08 10:24:01;;;;;;;2.60;1.70;;;;;;;27.07;33.23;101748.36;107179;1282;69410;-84
2022/08/08 10:26:48;;;;;;;3.00;1.50;;;;;;;27.26;32.68;101749.90;107345;1281;74084;-84
2022/08/08 10:29:51;;;;;;;3.60;1.60;;;;;;;27.28;31.30;101750.67;107201;1282;60775;-84
2022/08/08 10:35:28;;;;;;;2.60;1.60;;;;;;;27.21;30.99;101747.39;107267;1281;74916;-85
2022/08/08 10:38:16;;;;;;;3.60;1.80;;;;;;;27.23;30.83;101746.09;107071;1282;71958;-84
2022/08/08 10:40:44;;;;;;;3.70;1.50;;;;;;;27.25;31.02;101744.60;107157;1282;73496;-84
2022/08/08 10:43:12;;;;;;;3.50;1.50;;;;;;;27.34;31.95;101741.67;107070;1281;61206;-84
2022/08/08 10:45:48;;;;;;;3.30;1.60;;;;;;;27.50;31.69;101742.36;107033;1281;61684;-85
2022/08/08 10:48:30;;;;;;;3.30;1.50;;;;;;;27.70;31.36;101740.02;106950;1282;75215;-83
2022/08/08 10:51:09;;;;;;;2.50;1.40;;;;;;;27.77;30.43;101742.91;106915;1281;73122;-85
2022/08/08 10:53:36;;;;;;;2.40;1.40;;;;;;;27.79;29.89;101745.31;106937;1282;73200;-84
2022/08/08 10:56:23;;;;;;;3.10;1.60;;;;;;;27.74;29.34;101743.65;106874;1282;62974;-85
2022/08/08 10:59:08;;;;;;;3.90;1.90;;;;;;;27.75;29.40;101743.98;107156;1282;59596;-85
2022/08/08 11:01:38;;;;;;;3.50;1.40;;;;;;;27.78;29.22;101740.61;106001;1282;1737898;-85
2022/08/08 11:04:10;;;;;;;3.10;1.30;;;;;;;27.74;29.37;101738.46;106930;1283;71116;-85
2022/08/08 11:06:38;;;;;;;2.90;1.40;;;;;;;27.84;31.12;101740.44;107302;1282;74464;-84
2022/08/08 11:09:13;;;;;;;2.00;1.40;;;;;;;27.96;31.15;101736.80;107249;1281;59745;-84
2022/08/08 11:11:51;;;;;;;2.60;1.50;;;;;;;28.06;30.30;101732.91;107301;1280;61147;-85
2022/08/08 11:14:56;;;;;;;3.70;1.50;;;;;;;28.04;29.15;101733.61;106920;1282;77339;-85
2022/08/08 11:17:25;;;;;;;2.90;1.30;;;;;;;28.11;29.19;101732.16;107091;1283;72630;-85
2022/08/08 11:20:17;;;;;;;4.00;1.30;;;;;;;28.18;29.03;101731.10;107108;1281;74644;-85
2022/08/08 11:22:55;;;;;;;2.30;1.30;;;;;;;28.23;28.60;101729.09;107159;1282;60924;-85
2022/08/08 11:25:27;;;;;;;3.30;1.10;;;;;;;28.19;28.53;101732.96;107193;1281;61235;-86
2022/08/08 11:28:17;;;;;;;4.50;1.40;;;;;;;28.19;28.79;101731.48;107199;1282;76942;-85
2022/08/08 11:30:47;;;;;;;3.80;1.20;;;;;;;28.26;28.67;101729.65;107272;1281;71359;-85
2022/08/08 11:33:22;;;;;;;3.50;1.40;;;;;;;28.21;27.89;101731.92;107175;1282;74620;-86
2022/08/08 11:36:09;;;;;;;2.20;1.40;;;;;;;28.13;28.61;101734.25;107143;1282;61772;-85
2022/08/08 11:38:41;;;;;;;3.10;1.60;;;;;;;28.00;28.30;101737.80;107557;1282;61854;-84
2022/08/08 11:41:25;;;;;;;3.70;1.40;;;;;;;27.85;28.08;101735.98;107100;1282;74956;-85
2022/08/08 11:43:59;;;;;;;2.20;1.50;;;;;;;27.75;28.26;101737.11;107045;1281;72419;-86
2022/08/08 11:46:27;;;;;;;2.70;1.60;;;;;;;27.69;28.00;101728.25;106975;1281;74751;-85
2022/08/08 11:49:00;;;;;;;3.00;1.50;;;;;;;27.70;28.79;101730.22;107075;1283;60403;-86
2022/08/08 11:51:31;;;;;;;3.60;1.70;;;;;;;27.75;28.31;101727.85;106792;1282;61524;-85
2022/08/08 11:54:16;;;;;;;2.50;1.40;;;;;;;27.64;27.99;101732.48;107120;1281;74951;-85
2022/08/08 11:57:12;;;;;;;3.90;1.40;;;;;;;27.69;28.29;101725.04;107049;1282;71911;-85
2022/08/08 12:00:00;;;;;;;2.90;1.10;;;;;;;27.93;30.24;101714.86;107007;1282;72072;-85
2022/08/08 12:02:46;;;;;;;2.90;1.50;;;;;;;28.25;28.13;101716.17;106939;1281;60620;-85
2022/08/08 12:05:14;;;;;;;4.60;1.40;;;;;;;28.35;27.35;101715.75;106972;1282;60649;-86
2022/08/08 12:07:50;;;;;;;3.90;1.50;;;;;;;28.50;27.69;101716.94;106933;1281;75180;-85
2022/08/08 12:10:21;;;;;;;2.60;1.30;;;;;;;28.91;26.70;101715.88;107106;1282;71382;-86
2022/08/08 12:12:49;;;;;;;3.80;1.60;;;;;;;29.32;26.32;101718.59;107325;1282;73231;-85
2022/08/08 12:15:31;;;;;;;3.10;1.40;;;;;;;29.83;26.18;101711.06;107224;1281;60681;-85
2022/08/08 12:18:24;;;;;;;2.20;1.50;;;;;;;30.32;25.31;101709.52;107173;1282;61577;-85
2022/08/08 12:20:53;;;;;;;3.20;1.60;;;;;;;30.81;25.24;101711.09;107055;1282;73638;-85
2022/08/08 12:23:31;;;;;;;3.90;1.60;;;;;;;31.38;25.13;101711.17;107094;1282;72716;-84
2022/08/08 12:26:19;;;;;;;4.70;1.70;;;;;;;31.60;24.31;101714.88;107098;1282;73567;-85
2022/08/08 12:29:16;;;;;;;3.10;1.70;;;;;;;32.15;23.30;101711.51;107183;1283;60686;-85
2022/08/08 12:31:45;;;;;;;2.20;1.60;;;;;;;32.00;23.18;101708.74;107137;1282;60368;-85
2022/08/08 12:34:34;;;;;;;3.50;1.50;;;;;;;31.49;23.63;101711.61;107174;1283;74844;-85
2022/08/08 12:37:04;;;;;;;3.00;1.40;;;;;;;31.07;23.84;101708.69;106893;1281;72640;-85
2022/08/08 12:39:34;;;;;;;2.40;1.40;;;;;;;31.08;24.23;101707.35;107255;1280;74480;-85